sensor_id;sensor_type;location;lat;lon;timestamp;P1;durP1;ratioP1;P2;durP2;ratioP2
7917;SDS011;4004;42.624;23.386;2024-03-23T00:56:13;8.27;;;5.43;;
7917;SDS011;4004;42.624;23.386;2024-03-23T00:58:39;7.03;;;4.63;;
7917;SDS011;4004;42.624;23.386;2024-03-23T01:01:06;7.43;;;5.47;;
7917;SDS011;4004;42.624;23.386;2024-03-23T01:03:32;7.70;;;5.20;;
7917;SDS011;4004;42.624;23.386;2024-03-23T01:05:59;9.67;;;5.40;;
7917;SDS011;4004;42.624;23.386;2024-03-23T01:08:25;7.30;;;4.67;;
7917;SDS011;4004;42.624;23.386;2024-03-23T01:10:56;7.13;;;5.23;;
7917;SDS011;4004;42.624;23.386;2024-03-23T01:13:23;6.77;;;4.90;;
7917;SDS011;4004;42.624;23.386;2024-03-23T01:15:50;6.10;;;4.63;;
7917;SDS011;4004;42.624;23.386;2024-03-23T01:18:16;9.27;;;4.77;;
7917;SDS011;4004;42.624;23.386;2024-03-23T01:20:44;8.03;;;5.40;;
7917;SDS011;4004;42.624;23.386;2024-03-23T01:23:10;8.00;;;4.97;;
7917;SDS011;4004;42.624;23.386;2024-03-23T01:25:37;7.20;;;5.03;;
7917;SDS011;4004;42.624;23.386;2024-03-23T01:28:05;6.43;;;5.17;;
7917;SDS011;4004;42.624;23.386;2024-03-23T01:30:32;5.43;;;4.30;;
7917;SDS011;4004;42.624;23.386;2024-03-23T01:32:58;7.73;;;5.47;;
7917;SDS011;4004;42.624;23.386;2024-03-23T01:35:25;7.57;;;5.30;;
7917;SDS011;4004;42.624;23.386;2024-03-23T01:37:51;5.83;;;4.47;;
7917;SDS011;4004;42.624;23.386;2024-03-23T01:40:18;7.63;;;5.53;;
7917;SDS011;4004;42.624;23.386;2024-03-23T01:42:54;6.67;;;4.77;;
7917;SDS011;4004;42.624;23.386;2024-03-23T01:45:23;6.70;;;5.30;;
7917;SDS011;4004;42.624;23.386;2024-03-23T01:47:49;11.77;;;5.77;;
7917;SDS011;4004;42.624;23.386;2024-03-23T01:50:16;8.27;;;5.80;;
7917;SDS011;4004;42.624;23.386;2024-03-23T01:52:42;7.20;;;4.93;;
7917;SDS011;4004;42.624;23.386;2024-03-23T01:55:09;7.63;;;5.43;;
7917;SDS011;4004;42.624;23.386;2024-03-23T01:57:35;6.67;;;5.00;;
7917;SDS011;4004;42.624;23.386;2024-03-23T02:00:02;6.87;;;4.90;;
7917;SDS011;4004;42.624;23.386;2024-03-23T02:02:30;9.03;;;5.73;;
7917;SDS011;4004;42.624;23.386;2024-03-23T02:04:57;7.83;;;5.60;;
7917;SDS011;4004;42.624;23.386;2024-03-23T02:07:23;8.97;;;5.77;;
7917;SDS011;4004;42.624;23.386;2024-03-23T02:09:50;6.17;;;5.20;;
7917;SDS011;4004;42.624;23.386;2024-03-23T02:12:17;6.50;;;5.23;;
7917;SDS011;4004;42.624;23.386;2024-03-23T02:14:44;8.30;;;6.03;;
7917;SDS011;4004;42.624;23.386;2024-03-23T02:17:10;6.63;;;5.10;;
7917;SDS011;4004;42.624;23.386;2024-03-23T02:19:38;7.63;;;5.80;;
7917;SDS011;4004;42.624;23.386;2024-03-23T02:22:04;7.30;;;5.40;;
7917;SDS011;4004;42.624;23.386;2024-03-23T02:24:32;8.63;;;5.53;;
7917;SDS011;4004;42.624;23.386;2024-03-23T02:26:59;11.30;;;6.40;;
7917;SDS011;4004;42.624;23.386;2024-03-23T02:29:26;9.97;;;6.40;;
7917;SDS011;4004;42.624;23.386;2024-03-23T02:31:52;9.73;;;5.73;;
7917;SDS011;4004;42.624;23.386;2024-03-23T02:34:18;8.07;;;5.40;;
7917;SDS011;4004;42.624;23.386;2024-03-23T02:36:44;8.17;;;5.83;;
7917;SDS011;4004;42.624;23.386;2024-03-23T02:39:11;6.87;;;5.13;;
7917;SDS011;4004;42.624;23.386;2024-03-23T02:41:38;8.47;;;5.20;;
7917;SDS011;4004;42.624;23.386;2024-03-23T02:44:05;5.73;;;4.50;;
7917;SDS011;4004;42.624;23.386;2024-03-23T02:46:31;6.10;;;4.33;;
7917;SDS011;4004;42.624;23.386;2024-03-23T02:48:58;5.87;;;4.03;;
7917;SDS011;4004;42.624;23.386;2024-03-23T02:51:24;6.57;;;4.60;;
7917;SDS011;4004;42.624;23.386;2024-03-23T02:53:51;4.83;;;4.07;;
7917;SDS011;4004;42.624;23.386;2024-03-23T02:56:17;7.73;;;4.50;;
7917;SDS011;4004;42.624;23.386;2024-03-23T02:58:45;5.90;;;4.20;;
7917;SDS011;4004;42.624;23.386;2024-03-23T03:01:11;6.77;;;4.00;;
7917;SDS011;4004;42.624;23.386;2024-03-23T03:03:38;6.27;;;4.67;;
7917;SDS011;4004;42.624;23.386;2024-03-23T03:06:04;6.53;;;4.87;;
7917;SDS011;4004;42.624;23.386;2024-03-23T03:08:31;6.47;;;4.27;;
7917;SDS011;4004;42.624;23.386;2024-03-23T03:10:57;5.90;;;4.10;;
7917;SDS011;4004;42.624;23.386;2024-03-23T03:13:24;6.93;;;4.37;;
7917;SDS011;4004;42.624;23.386;2024-03-23T03:15:51;10.23;;;4.53;;
7917;SDS011;4004;42.624;23.386;2024-03-23T03:18:18;6.43;;;4.87;;
7917;SDS011;4004;42.624;23.386;2024-03-23T03:20:44;7.87;;;4.70;;
7917;SDS011;4004;42.624;23.386;2024-03-23T03:23:11;7.70;;;5.13;;
7917;SDS011;4004;42.624;23.386;2024-03-23T03:25:37;6.27;;;4.63;;
7917;SDS011;4004;42.624;23.386;2024-03-23T03:28:04;10.83;;;4.30;;
7917;SDS011;4004;42.624;23.386;2024-03-23T03:30:31;5.80;;;3.93;;
7917;SDS011;4004;42.624;23.386;2024-03-23T03:32:59;4.27;;;3.87;;
7917;SDS011;4004;42.624;23.386;2024-03-23T03:35:25;6.63;;;4.20;;
7917;SDS011;4004;42.624;23.386;2024-03-23T03:37:52;7.03;;;4.47;;
7917;SDS011;4004;42.624;23.386;2024-03-23T03:40:18;6.20;;;4.03;;
7917;SDS011;4004;42.624;23.386;2024-03-23T03:42:45;6.73;;;4.43;;
7917;SDS011;4004;42.624;23.386;2024-03-23T03:45:11;7.07;;;5.50;;
7917;SDS011;4004;42.624;23.386;2024-03-23T03:47:38;8.13;;;4.80;;
7917;SDS011;4004;42.624;23.386;2024-03-23T03:50:05;9.87;;;5.47;;
7917;SDS011;4004;42.624;23.386;2024-03-23T03:52:33;12.60;;;4.77;;
7917;SDS011;4004;42.624;23.386;2024-03-23T03:55:01;9.37;;;5.27;;
7917;SDS011;4004;42.624;23.386;2024-03-23T03:57:28;7.50;;;5.00;;
7917;SDS011;4004;42.624;23.386;2024-03-23T03:59:54;7.60;;;5.40;;
7917;SDS011;4004;42.624;23.386;2024-03-23T04:02:21;9.50;;;5.13;;
7917;SDS011;4004;42.624;23.386;2024-03-23T04:04:47;6.53;;;4.90;;
7917;SDS011;4004;42.624;23.386;2024-03-23T04:07:15;12.00;;;4.93;;
7917;SDS011;4004;42.624;23.386;2024-03-23T04:09:42;5.33;;;4.20;;
7917;SDS011;4004;42.624;23.386;2024-03-23T04:12:09;6.07;;;4.40;;
7917;SDS011;4004;42.624;23.386;2024-03-23T04:14:35;6.70;;;4.53;;
7917;SDS011;4004;42.624;23.386;2024-03-23T04:17:02;8.50;;;5.07;;
7917;SDS011;4004;42.624;23.386;2024-03-23T04:19:28;7.80;;;4.87;;
7917;SDS011;4004;42.624;23.386;2024-03-23T04:21:55;6.87;;;5.37;;
7917;SDS011;4004;42.624;23.386;2024-03-23T04:24:22;6.80;;;5.13;;
7917;SDS011;4004;42.624;23.386;2024-03-23T04:26:51;7.43;;;5.20;;
7917;SDS011;4004;42.624;23.386;2024-03-23T04:29:17;10.10;;;5.50;;
7917;SDS011;4004;42.624;23.386;2024-03-23T04:31:44;6.73;;;4.83;;
7917;SDS011;4004;42.624;23.386;2024-03-23T04:34:09;8.67;;;5.30;;
7917;SDS011;4004;42.624;23.386;2024-03-23T04:36:36;9.63;;;5.50;;
7917;SDS011;4004;42.624;23.386;2024-03-23T04:39:02;6.20;;;4.93;;
7917;SDS011;4004;42.624;23.386;2024-03-23T04:41:31;13.87;;;5.83;;
7917;SDS011;4004;42.624;23.386;2024-03-23T04:43:58;9.07;;;5.37;;
7917;SDS011;4004;42.624;23.386;2024-03-23T04:46:25;8.57;;;5.17;;
7917;SDS011;4004;42.624;23.386;2024-03-23T04:48:52;7.40;;;5.70;;
7917;SDS011;4004;42.624;23.386;2024-03-23T04:51:21;12.73;;;6.27;;
7917;SDS011;4004;42.624;23.386;2024-03-23T04:53:48;7.80;;;5.30;;
7917;SDS011;4004;42.624;23.386;2024-03-23T04:56:14;8.93;;;6.13;;
7917;SDS011;4004;42.624;23.386;2024-03-23T04:58:43;8.07;;;5.60;;
7917;SDS011;4004;42.624;23.386;2024-03-23T05:01:10;10.33;;;6.67;;
7917;SDS011;4004;42.624;23.386;2024-03-23T05:03:37;8.43;;;5.37;;
7917;SDS011;4004;42.624;23.386;2024-03-23T05:06:03;7.10;;;5.37;;
7917;SDS011;4004;42.624;23.386;2024-03-23T05:08:31;10.97;;;6.63;;
7917;SDS011;4004;42.624;23.386;2024-03-23T05:10:57;7.63;;;5.50;;
7917;SDS011;4004;42.624;23.386;2024-03-23T05:13:24;7.70;;;5.63;;
7917;SDS011;4004;42.624;23.386;2024-03-23T05:15:52;7.00;;;5.30;;
7917;SDS011;4004;42.624;23.386;2024-03-23T05:18:19;6.80;;;4.90;;
7917;SDS011;4004;42.624;23.386;2024-03-23T05:20:45;16.37;;;6.30;;
7917;SDS011;4004;42.624;23.386;2024-03-23T05:23:12;9.23;;;6.33;;
7917;SDS011;4004;42.624;23.386;2024-03-23T05:25:38;8.87;;;5.80;;
7917;SDS011;4004;42.624;23.386;2024-03-23T05:28:05;8.00;;;5.20;;
7917;SDS011;4004;42.624;23.386;2024-03-23T05:30:31;11.03;;;6.33;;
7917;SDS011;4004;42.624;23.386;2024-03-23T05:33:00;8.63;;;6.40;;
7917;SDS011;4004;42.624;23.386;2024-03-23T05:35:26;9.03;;;6.10;;
7917;SDS011;4004;42.624;23.386;2024-03-23T05:37:52;8.83;;;5.60;;
7917;SDS011;4004;42.624;23.386;2024-03-23T05:40:18;9.70;;;5.97;;
7917;SDS011;4004;42.624;23.386;2024-03-23T05:42:45;12.03;;;6.67;;
7917;SDS011;4004;42.624;23.386;2024-03-23T05:45:11;7.97;;;6.10;;
7917;SDS011;4004;42.624;23.386;2024-03-23T05:47:38;11.00;;;6.27;;
7917;SDS011;4004;42.624;23.386;2024-03-23T05:50:06;10.67;;;6.53;;
7917;SDS011;4004;42.624;23.386;2024-03-23T05:52:35;13.27;;;6.37;;
7917;SDS011;4004;42.624;23.386;2024-03-23T05:55:00;9.30;;;6.70;;
7917;SDS011;4004;42.624;23.386;2024-03-23T05:57:27;11.67;;;7.43;;
7917;SDS011;4004;42.624;23.386;2024-03-23T05:59:53;10.40;;;6.03;;
7917;SDS011;4004;42.624;23.386;2024-03-23T06:02:20;9.73;;;5.80;;
7917;SDS011;4004;42.624;23.386;2024-03-23T06:04:46;13.67;;;6.47;;
7917;SDS011;4004;42.624;23.386;2024-03-23T06:07:14;9.07;;;5.97;;
7917;SDS011;4004;42.624;23.386;2024-03-23T06:09:40;11.60;;;6.33;;
7917;SDS011;4004;42.624;23.386;2024-03-23T06:12:07;6.57;;;5.80;;
7917;SDS011;4004;42.624;23.386;2024-03-23T06:14:34;15.60;;;6.83;;
7917;SDS011;4004;42.624;23.386;2024-03-23T06:17:00;8.70;;;5.67;;
7917;SDS011;4004;42.624;23.386;2024-03-23T06:19:27;11.57;;;6.47;;
7917;SDS011;4004;42.624;23.386;2024-03-23T06:21:54;10.80;;;6.53;;
7917;SDS011;4004;42.624;23.386;2024-03-23T06:24:21;10.27;;;7.17;;
7917;SDS011;4004;42.624;23.386;2024-03-23T06:26:49;10.10;;;6.47;;
7917;SDS011;4004;42.624;23.386;2024-03-23T06:29:15;12.63;;;6.93;;
7917;SDS011;4004;42.624;23.386;2024-03-23T06:31:42;15.57;;;7.50;;
7917;SDS011;4004;42.624;23.386;2024-03-23T06:34:08;9.27;;;6.53;;
7917;SDS011;4004;42.624;23.386;2024-03-23T06:36:35;12.03;;;6.73;;
7917;SDS011;4004;42.624;23.386;2024-03-23T06:39:03;13.87;;;8.07;;
7917;SDS011;4004;42.624;23.386;2024-03-23T06:41:32;11.13;;;7.50;;
7917;SDS011;4004;42.624;23.386;2024-03-23T06:43:57;15.03;;;9.10;;
7917;SDS011;4004;42.624;23.386;2024-03-23T06:46:24;15.47;;;9.03;;
7917;SDS011;4004;42.624;23.386;2024-03-23T06:48:50;13.90;;;8.87;;
7917;SDS011;4004;42.624;23.386;2024-03-23T06:51:17;14.73;;;8.30;;
7917;SDS011;4004;42.624;23.386;2024-03-23T06:53:43;12.90;;;8.65;;
7917;SDS011;4004;42.624;23.386;2024-03-23T06:56:10;12.83;;;8.70;;
7917;SDS011;4004;42.624;23.386;2024-03-23T06:58:37;12.00;;;8.60;;
7917;SDS011;4004;42.624;23.386;2024-03-23T07:01:04;15.87;;;8.10;;
7917;SDS011;4004;42.624;23.386;2024-03-23T07:03:30;10.30;;;7.77;;
7917;SDS011;4004;42.624;23.386;2024-03-23T07:05:57;14.17;;;8.30;;
7917;SDS011;4004;42.624;23.386;2024-03-23T07:08:23;11.50;;;8.07;;
7917;SDS011;4004;42.624;23.386;2024-03-23T07:10:50;12.20;;;8.50;;
7917;SDS011;4004;42.624;23.386;2024-03-23T07:13:16;10.97;;;8.17;;
7917;SDS011;4004;42.624;23.386;2024-03-23T07:15:49;15.17;;;8.17;;
7917;SDS011;4004;42.624;23.386;2024-03-23T07:18:16;12.47;;;8.10;;
7917;SDS011;4004;42.624;23.386;2024-03-23T07:20:51;12.10;;;8.40;;
7917;SDS011;4004;42.624;23.386;2024-03-23T07:23:17;17.40;;;8.45;;
7917;SDS011;4004;42.624;23.386;2024-03-23T07:25:44;14.20;;;7.57;;
7917;SDS011;4004;42.624;23.386;2024-03-23T07:28:10;13.90;;;7.63;;
7917;SDS011;4004;42.624;23.386;2024-03-23T07:30:37;16.80;;;8.40;;
7917;SDS011;4004;42.624;23.386;2024-03-23T07:35:34;12.17;;;7.83;;
7917;SDS011;4004;42.624;23.386;2024-03-23T07:38:00;16.03;;;7.90;;
7917;SDS011;4004;42.624;23.386;2024-03-23T07:40:30;8.20;;;7.20;;
7917;SDS011;4004;42.624;23.386;2024-03-23T07:42:57;11.47;;;7.80;;
7917;SDS011;4004;42.624;23.386;2024-03-23T07:45:23;11.97;;;7.77;;
7917;SDS011;4004;42.624;23.386;2024-03-23T07:57:35;11.50;;;7.40;;
7917;SDS011;4004;42.624;23.386;2024-03-23T08:00:01;11.17;;;7.83;;
7917;SDS011;4004;42.624;23.386;2024-03-23T08:02:28;10.60;;;8.33;;
7917;SDS011;4004;42.624;23.386;2024-03-23T08:04:54;11.77;;;8.23;;
7917;SDS011;4004;42.624;23.386;2024-03-23T08:07:21;12.13;;;7.87;;
7917;SDS011;4004;42.624;23.386;2024-03-23T08:09:49;9.00;;;7.77;;
7917;SDS011;4004;42.624;23.386;2024-03-23T08:12:15;9.03;;;8.13;;
7917;SDS011;4004;42.624;23.386;2024-03-23T08:14:41;11.33;;;9.53;;
7917;SDS011;4004;42.624;23.386;2024-03-23T08:17:09;18.20;;;8.90;;
7917;SDS011;4004;42.624;23.386;2024-03-23T08:19:35;14.93;;;9.10;;
7917;SDS011;4004;42.624;23.386;2024-03-23T08:22:01;14.93;;;7.93;;
7917;SDS011;4004;42.624;23.386;2024-03-23T08:24:28;11.10;;;8.20;;
7917;SDS011;4004;42.624;23.386;2024-03-23T08:26:56;12.53;;;7.97;;
7917;SDS011;4004;42.624;23.386;2024-03-23T08:29:23;13.23;;;8.87;;
7917;SDS011;4004;42.624;23.386;2024-03-23T08:31:49;19.30;;;9.47;;
7917;SDS011;4004;42.624;23.386;2024-03-23T08:34:16;12.23;;;8.43;;
7917;SDS011;4004;42.624;23.386;2024-03-23T08:36:42;13.70;;;8.70;;
7917;SDS011;4004;42.624;23.386;2024-03-23T08:39:09;15.40;;;8.63;;
7917;SDS011;4004;42.624;23.386;2024-03-23T08:41:35;14.53;;;9.00;;
7917;SDS011;4004;42.624;23.386;2024-03-23T08:44:03;15.20;;;8.83;;
7917;SDS011;4004;42.624;23.386;2024-03-23T08:46:29;14.27;;;8.70;;
7917;SDS011;4004;42.624;23.386;2024-03-23T08:48:56;11.70;;;8.10;;
7917;SDS011;4004;42.624;23.386;2024-03-23T08:51:22;9.93;;;7.70;;
7917;SDS011;4004;42.624;23.386;2024-03-23T08:53:48;11.00;;;7.87;;
7917;SDS011;4004;42.624;23.386;2024-03-23T08:56:14;11.27;;;8.17;;
7917;SDS011;4004;42.624;23.386;2024-03-23T08:58:42;10.27;;;8.30;;
7917;SDS011;4004;42.624;23.386;2024-03-23T09:01:10;11.27;;;8.23;;
7917;SDS011;4004;42.624;23.386;2024-03-23T09:03:39;12.47;;;8.83;;
7917;SDS011;4004;42.624;23.386;2024-03-23T09:06:06;11.80;;;8.53;;
7917;SDS011;4004;42.624;23.386;2024-03-23T09:08:34;14.10;;;7.93;;
7917;SDS011;4004;42.624;23.386;2024-03-23T09:11:03;15.83;;;8.63;;
7917;SDS011;4004;42.624;23.386;2024-03-23T09:13:32;13.07;;;8.13;;
7917;SDS011;4004;42.624;23.386;2024-03-23T09:15:58;13.80;;;9.07;;
7917;SDS011;4004;42.624;23.386;2024-03-23T09:18:26;15.63;;;9.77;;
7917;SDS011;4004;42.624;23.386;2024-03-23T09:20:52;14.00;;;9.00;;
7917;SDS011;4004;42.624;23.386;2024-03-23T09:23:20;12.63;;;8.80;;
7917;SDS011;4004;42.624;23.386;2024-03-23T09:25:46;12.83;;;9.53;;
7917;SDS011;4004;42.624;23.386;2024-03-23T09:28:13;9.20;;;7.63;;
7917;SDS011;4004;42.624;23.386;2024-03-23T09:30:39;11.43;;;8.63;;
7917;SDS011;4004;42.624;23.386;2024-03-23T09:33:07;12.83;;;9.17;;
7917;SDS011;4004;42.624;23.386;2024-03-23T09:35:37;16.27;;;9.23;;
7917;SDS011;4004;42.624;23.386;2024-03-23T09:38:04;14.47;;;9.13;;
7917;SDS011;4004;42.624;23.386;2024-03-23T09:40:31;12.47;;;8.07;;
7917;SDS011;4004;42.624;23.386;2024-03-23T09:42:58;19.17;;;8.57;;
7917;SDS011;4004;42.624;23.386;2024-03-23T09:45:26;14.53;;;8.47;;
7917;SDS011;4004;42.624;23.386;2024-03-23T09:47:54;16.43;;;8.67;;
7917;SDS011;4004;42.624;23.386;2024-03-23T09:50:21;15.40;;;8.53;;
7917;SDS011;4004;42.624;23.386;2024-03-23T09:52:49;10.40;;;6.87;;
7917;SDS011;4004;42.624;23.386;2024-03-23T09:55:15;14.80;;;8.40;;
7917;SDS011;4004;42.624;23.386;2024-03-23T09:57:42;9.23;;;7.53;;
7917;SDS011;4004;42.624;23.386;2024-03-23T10:00:08;10.90;;;6.87;;
7917;SDS011;4004;42.624;23.386;2024-03-23T10:02:37;10.00;;;7.07;;
7917;SDS011;4004;42.624;23.386;2024-03-23T10:05:03;11.20;;;7.60;;
7917;SDS011;4004;42.624;23.386;2024-03-23T10:07:31;16.63;;;8.13;;
7917;SDS011;4004;42.624;23.386;2024-03-23T10:09:58;15.63;;;8.13;;
7917;SDS011;4004;42.624;23.386;2024-03-23T10:12:35;11.60;;;7.73;;
7917;SDS011;4004;42.624;23.386;2024-03-23T10:15:10;10.57;;;8.00;;
7917;SDS011;4004;42.624;23.386;2024-03-23T10:17:44;11.83;;;7.60;;
7917;SDS011;4004;42.624;23.386;2024-03-23T10:20:10;10.90;;;7.63;;
7917;SDS011;4004;42.624;23.386;2024-03-23T10:22:37;14.63;;;7.47;;
7917;SDS011;4004;42.624;23.386;2024-03-23T10:25:08;11.00;;;7.17;;
7917;SDS011;4004;42.624;23.386;2024-03-23T10:27:35;13.87;;;7.40;;
7917;SDS011;4004;42.624;23.386;2024-03-23T10:30:08;8.43;;;6.67;;
7917;SDS011;4004;42.624;23.386;2024-03-23T10:32:36;11.80;;;7.50;;
7917;SDS011;4004;42.624;23.386;2024-03-23T10:35:16;9.87;;;7.40;;
7917;SDS011;4004;42.624;23.386;2024-03-23T10:37:45;9.80;;;7.00;;
7917;SDS011;4004;42.624;23.386;2024-03-23T10:40:14;12.87;;;7.10;;
7917;SDS011;4004;42.624;23.386;2024-03-23T10:42:41;10.50;;;7.27;;
7917;SDS011;4004;42.624;23.386;2024-03-23T10:45:08;11.37;;;7.37;;
7917;SDS011;4004;42.624;23.386;2024-03-23T10:47:35;14.77;;;7.60;;
7917;SDS011;4004;42.624;23.386;2024-03-23T10:50:03;11.53;;;6.73;;
7917;SDS011;4004;42.624;23.386;2024-03-23T10:52:30;14.23;;;6.70;;
7917;SDS011;4004;42.624;23.386;2024-03-23T10:54:56;8.23;;;6.67;;
7917;SDS011;4004;42.624;23.386;2024-03-23T10:57:28;11.87;;;6.47;;
7917;SDS011;4004;42.624;23.386;2024-03-23T10:59:58;8.67;;;6.23;;
7917;SDS011;4004;42.624;23.386;2024-03-23T11:02:25;11.60;;;7.13;;
7917;SDS011;4004;42.624;23.386;2024-03-23T11:04:52;9.97;;;7.73;;
7917;SDS011;4004;42.624;23.386;2024-03-23T11:07:31;10.90;;;6.77;;
7917;SDS011;4004;42.624;23.386;2024-03-23T11:09:57;9.33;;;6.90;;
7917;SDS011;4004;42.624;23.386;2024-03-23T11:12:27;9.50;;;6.37;;
7917;SDS011;4004;42.624;23.386;2024-03-23T11:14:57;8.57;;;6.27;;
7917;SDS011;4004;42.624;23.386;2024-03-23T11:17:27;10.27;;;6.30;;
7917;SDS011;4004;42.624;23.386;2024-03-23T11:19:53;9.03;;;6.37;;
7917;SDS011;4004;42.624;23.386;2024-03-23T11:22:41;11.53;;;6.87;;
7917;SDS011;4004;42.624;23.386;2024-03-23T11:25:12;10.70;;;6.27;;
7917;SDS011;4004;42.624;23.386;2024-03-23T11:27:44;11.63;;;6.70;;
7917;SDS011;4004;42.624;23.386;2024-03-23T11:30:14;9.87;;;7.03;;
7917;SDS011;4004;42.624;23.386;2024-03-23T11:32:43;9.77;;;7.13;;
7917;SDS011;4004;42.624;23.386;2024-03-23T11:35:10;10.50;;;6.30;;
7917;SDS011;4004;42.624;23.386;2024-03-23T11:37:37;10.13;;;6.97;;
7917;SDS011;4004;42.624;23.386;2024-03-23T11:40:19;12.07;;;6.53;;
7917;SDS011;4004;42.624;23.386;2024-03-23T11:42:48;22.80;;;7.93;;
7917;SDS011;4004;42.624;23.386;2024-03-23T11:45:21;10.07;;;7.13;;
7917;SDS011;4004;42.624;23.386;2024-03-23T11:47:47;9.67;;;6.70;;
7917;SDS011;4004;42.624;23.386;2024-03-23T11:50:19;17.30;;;8.87;;
7917;SDS011;4004;42.624;23.386;2024-03-23T11:52:46;10.87;;;6.53;;
7917;SDS011;4004;42.624;23.386;2024-03-23T11:55:12;13.40;;;7.20;;
7917;SDS011;4004;42.624;23.386;2024-03-23T11:57:39;26.83;;;8.77;;
7917;SDS011;4004;42.624;23.386;2024-03-23T12:03:05;12.60;;;7.27;;
7917;SDS011;4004;42.624;23.386;2024-03-23T12:05:32;9.47;;;7.00;;
7917;SDS011;4004;42.624;23.386;2024-03-23T12:08:17;10.30;;;8.20;;
7917;SDS011;4004;42.624;23.386;2024-03-23T12:10:47;12.57;;;7.67;;
7917;SDS011;4004;42.624;23.386;2024-03-23T12:13:15;15.57;;;6.70;;
7917;SDS011;4004;42.624;23.386;2024-03-23T12:15:46;13.63;;;7.63;;
7917;SDS011;4004;42.624;23.386;2024-03-23T12:18:14;14.27;;;7.40;;
7917;SDS011;4004;42.624;23.386;2024-03-23T12:20:41;11.77;;;6.50;;
7917;SDS011;4004;42.624;23.386;2024-03-23T12:23:07;9.53;;;6.67;;
7917;SDS011;4004;42.624;23.386;2024-03-23T12:25:36;11.50;;;6.70;;
7917;SDS011;4004;42.624;23.386;2024-03-23T12:28:03;9.07;;;6.90;;
7917;SDS011;4004;42.624;23.386;2024-03-23T12:30:32;11.50;;;7.03;;
7917;SDS011;4004;42.624;23.386;2024-03-23T12:32:58;10.77;;;6.93;;
7917;SDS011;4004;42.624;23.386;2024-03-23T12:35:27;10.93;;;6.90;;
7917;SDS011;4004;42.624;23.386;2024-03-23T12:37:53;14.47;;;7.47;;
7917;SDS011;4004;42.624;23.386;2024-03-23T12:40:19;16.40;;;8.10;;
7917;SDS011;4004;42.624;23.386;2024-03-23T12:42:45;11.60;;;7.47;;
7917;SDS011;4004;42.624;23.386;2024-03-23T12:45:12;10.67;;;6.93;;
7917;SDS011;4004;42.624;23.386;2024-03-23T12:47:38;10.20;;;6.50;;
7917;SDS011;4004;42.624;23.386;2024-03-23T12:50:05;10.20;;;6.93;;
7917;SDS011;4004;42.624;23.386;2024-03-23T12:52:33;10.17;;;6.77;;
7917;SDS011;4004;42.624;23.386;2024-03-23T12:55:00;10.87;;;6.60;;
7917;SDS011;4004;42.624;23.386;2024-03-23T12:57:26;10.63;;;7.60;;
7917;SDS011;4004;42.624;23.386;2024-03-23T12:59:53;8.57;;;6.60;;
7917;SDS011;4004;42.624;23.386;2024-03-23T13:02:19;8.63;;;6.47;;
7917;SDS011;4004;42.624;23.386;2024-03-23T13:04:46;11.03;;;5.23;;
7917;SDS011;4004;42.624;23.386;2024-03-23T13:07:15;11.13;;;6.77;;
7917;SDS011;4004;42.624;23.386;2024-03-23T13:09:44;9.57;;;6.63;;
7917;SDS011;4004;42.624;23.386;2024-03-23T13:12:10;9.07;;;5.40;;
7917;SDS011;4004;42.624;23.386;2024-03-23T13:14:38;10.97;;;8.20;;
7917;SDS011;4004;42.624;23.386;2024-03-23T13:17:04;9.87;;;5.87;;
7917;SDS011;4004;42.624;23.386;2024-03-23T13:19:32;14.53;;;7.07;;
7917;SDS011;4004;42.624;23.386;2024-03-23T13:21:58;7.70;;;5.60;;
7917;SDS011;4004;42.624;23.386;2024-03-23T13:24:26;7.37;;;4.77;;
7917;SDS011;4004;42.624;23.386;2024-03-23T13:26:55;7.27;;;4.50;;
7917;SDS011;4004;42.624;23.386;2024-03-23T13:29:22;5.27;;;4.00;;
7917;SDS011;4004;42.624;23.386;2024-03-23T13:31:49;11.27;;;4.70;;
7917;SDS011;4004;42.624;23.386;2024-03-23T13:34:17;10.83;;;5.30;;
7917;SDS011;4004;42.624;23.386;2024-03-23T13:36:43;8.60;;;4.67;;
7917;SDS011;4004;42.624;23.386;2024-03-23T13:39:11;12.13;;;5.00;;
7917;SDS011;4004;42.624;23.386;2024-03-23T13:41:38;7.33;;;4.20;;
7917;SDS011;4004;42.624;23.386;2024-03-23T13:44:07;5.40;;;4.43;;
7917;SDS011;4004;42.624;23.386;2024-03-23T13:46:33;9.87;;;4.60;;
7917;SDS011;4004;42.624;23.386;2024-03-23T13:49:00;3.87;;;3.30;;
7917;SDS011;4004;42.624;23.386;2024-03-23T13:51:26;5.20;;;2.83;;
7917;SDS011;4004;42.624;23.386;2024-03-23T13:53:53;5.50;;;2.70;;
7917;SDS011;4004;42.624;23.386;2024-03-23T13:56:20;5.10;;;2.53;;
7917;SDS011;4004;42.624;23.386;2024-03-23T13:58:47;8.37;;;3.10;;
7917;SDS011;4004;42.624;23.386;2024-03-23T14:01:15;19.10;;;3.50;;
7917;SDS011;4004;42.624;23.386;2024-03-23T14:03:42;15.03;;;3.37;;
7917;SDS011;4004;42.624;23.386;2024-03-23T14:06:09;5.80;;;2.67;;
7917;SDS011;4004;42.624;23.386;2024-03-23T14:08:36;2.80;;;2.30;;
7917;SDS011;4004;42.624;23.386;2024-03-23T14:11:04;5.20;;;2.70;;
7917;SDS011;4004;42.624;23.386;2024-03-23T14:13:31;2.63;;;2.27;;
7917;SDS011;4004;42.624;23.386;2024-03-23T14:15:57;4.33;;;2.53;;
7917;SDS011;4004;42.624;23.386;2024-03-23T14:18:26;8.77;;;2.47;;
7917;SDS011;4004;42.624;23.386;2024-03-23T14:20:52;4.90;;;2.40;;
7917;SDS011;4004;42.624;23.386;2024-03-23T14:23:24;14.77;;;3.43;;
7917;SDS011;4004;42.624;23.386;2024-03-23T14:25:52;4.83;;;2.87;;
7917;SDS011;4004;42.624;23.386;2024-03-23T14:28:20;2.90;;;2.20;;
7917;SDS011;4004;42.624;23.386;2024-03-23T14:30:47;16.63;;;3.70;;
7917;SDS011;4004;42.624;23.386;2024-03-23T14:33:14;12.53;;;2.87;;
7917;SDS011;4004;42.624;23.386;2024-03-23T14:35:42;6.73;;;2.00;;
7917;SDS011;4004;42.624;23.386;2024-03-23T14:38:09;5.20;;;2.07;;
7917;SDS011;4004;42.624;23.386;2024-03-23T14:40:35;15.67;;;3.57;;
7917;SDS011;4004;42.624;23.386;2024-03-23T14:43:02;6.53;;;2.60;;
7917;SDS011;4004;42.624;23.386;2024-03-23T14:45:27;5.33;;;2.30;;
7917;SDS011;4004;42.624;23.386;2024-03-23T14:47:54;15.93;;;4.67;;
7917;SDS011;4004;42.624;23.386;2024-03-23T14:50:20;9.20;;;3.27;;
7917;SDS011;4004;42.624;23.386;2024-03-23T14:52:48;8.73;;;2.40;;
7917;SDS011;4004;42.624;23.386;2024-03-23T14:55:16;13.23;;;3.53;;
7917;SDS011;4004;42.624;23.386;2024-03-23T14:57:43;5.50;;;2.70;;
7917;SDS011;4004;42.624;23.386;2024-03-23T15:00:09;10.27;;;2.40;;
7917;SDS011;4004;42.624;23.386;2024-03-23T15:02:37;15.83;;;4.10;;
7917;SDS011;4004;42.624;23.386;2024-03-23T15:05:03;5.90;;;2.47;;
7917;SDS011;4004;42.624;23.386;2024-03-23T15:07:34;4.43;;;1.93;;
7917;SDS011;4004;42.624;23.386;2024-03-23T15:10:02;9.73;;;2.03;;
7917;SDS011;4004;42.624;23.386;2024-03-23T15:12:30;11.70;;;3.23;;
7917;SDS011;4004;42.624;23.386;2024-03-23T15:14:58;2.47;;;1.67;;
7917;SDS011;4004;42.624;23.386;2024-03-23T15:17:25;16.67;;;3.17;;
7917;SDS011;4004;42.624;23.386;2024-03-23T15:19:50;8.10;;;2.70;;
7917;SDS011;4004;42.624;23.386;2024-03-23T15:22:18;5.77;;;1.87;;
7917;SDS011;4004;42.624;23.386;2024-03-23T15:24:44;4.67;;;2.20;;
7917;SDS011;4004;42.624;23.386;2024-03-23T15:27:13;6.43;;;1.87;;
7917;SDS011;4004;42.624;23.386;2024-03-23T15:29:38;6.10;;;2.00;;
7917;SDS011;4004;42.624;23.386;2024-03-23T15:32:07;2.73;;;1.97;;
7917;SDS011;4004;42.624;23.386;2024-03-23T15:34:33;16.13;;;3.20;;
7917;SDS011;4004;42.624;23.386;2024-03-23T15:37:00;7.97;;;3.17;;
7917;SDS011;4004;42.624;23.386;2024-03-23T15:39:26;4.37;;;2.33;;
7917;SDS011;4004;42.624;23.386;2024-03-23T15:41:53;13.53;;;2.90;;
7917;SDS011;4004;42.624;23.386;2024-03-23T15:44:21;9.17;;;3.20;;
7917;SDS011;4004;42.624;23.386;2024-03-23T15:46:48;5.43;;;2.20;;
7917;SDS011;4004;42.624;23.386;2024-03-23T15:49:13;12.60;;;3.90;;
7917;SDS011;4004;42.624;23.386;2024-03-23T15:51:40;8.60;;;3.60;;
7917;SDS011;4004;42.624;23.386;2024-03-23T15:54:09;7.60;;;2.87;;
7917;SDS011;4004;42.624;23.386;2024-03-23T15:56:36;4.70;;;2.50;;
7917;SDS011;4004;42.624;23.386;2024-03-23T15:59:02;6.30;;;2.80;;
7917;SDS011;4004;42.624;23.386;2024-03-23T16:01:32;7.57;;;3.60;;
7917;SDS011;4004;42.624;23.386;2024-03-23T16:04:00;15.93;;;4.57;;
7917;SDS011;4004;42.624;23.386;2024-03-23T16:06:27;8.57;;;3.13;;